Time;durP1;ratioP1;P1;durP2;ratioP2;P2;SDS_P1;SDS_P2;PMS_P1;PMS_P2;Temp;Humidity;BMP_temperature;BMP_pressure;BME280_temperature;BME280_humidity;BME280_pressure;Samples;Min_cycle;Max_cycle;Signal;HPM_P1;HPM_P2
2023/01/06 00:02:15;;;;;;;20.60;11.93;;;7.40;1.00;;;;;;4985924;28;20270;-81
2023/01/06 00:04:41;;;;;;;19.17;11.60;;;7.40;1.00;;;;;;4985504;28;20247;-80
2023/01/06 00:07:06;;;;;;;22.70;12.30;;;7.40;1.00;;;;;;4985221;28;20204;-81
2023/01/06 00:09:33;;;;;;;19.60;11.47;;;7.40;99.90;;;;;;4985488;28;20184;-81
2023/01/06 00:11:59;;;;;;;16.63;10.97;;;7.40;99.90;;;;;;4986016;28;20243;-81
2023/01/06 00:14:24;;;;;;;17.03;9.93;;;7.40;99.90;;;;;;4986762;28;20188;-81
2023/01/06 00:16:50;;;;;;;18.10;11.00;;;7.40;99.90;;;;;;4986626;28;20208;-81
2023/01/06 00:19:15;;;;;;;19.37;11.20;;;7.50;99.90;;;;;;4985289;28;20291;-81
2023/01/06 00:21:43;;;;;;;21.20;10.10;;;7.50;13.60;;;;;;4985273;28;20645;-82
2023/01/06 00:24:10;;;;;;;19.00;10.90;;;7.50;1.00;;;;;;4985057;28;20553;-81
2023/01/06 00:26:36;;;;;;;18.37;10.70;;;7.50;1.00;;;;;;5001274;28;20196;-81
2023/01/06 00:29:02;;;;;;;17.57;9.97;;;7.40;32.90;;;;;;4985508;28;20190;-81
2023/01/06 00:31:27;;;;;;;19.27;9.80;;;7.50;99.90;;;;;;4985219;28;20184;-81
2023/01/06 00:33:57;;;;;;;21.50;11.27;;;7.50;99.90;;;;;;4985507;28;20204;-81
2023/01/06 00:36:23;;;;;;;17.17;10.80;;;7.50;99.90;;;;;;4984176;28;20188;-80
2023/01/06 00:38:49;;;;;;;17.03;9.97;;;7.50;99.90;;;;;;4986418;28;20765;-81
2023/01/06 00:44:01;;;;;;;18.67;10.97;;;7.50;99.90;;;;;;4987348;28;20183;-81
2023/01/06 00:46:28;;;;;;;18.80;10.90;;;7.50;99.90;;;;;;4984565;28;20211;-81
2023/01/06 00:48:54;;;;;;;18.97;10.93;;;7.50;99.90;;;;;;4985056;28;20192;-81
2023/01/06 00:51:20;;;;;;;16.53;10.40;;;7.50;99.90;;;;;;4986579;28;20677;-81
2023/01/06 00:53:45;;;;;;;20.37;11.23;;;7.50;99.90;;;;;;4985081;28;20215;-81
2023/01/06 00:56:11;;;;;;;16.27;9.80;;;7.50;99.90;;;;;;4985033;28;20188;-81
2023/01/06 00:58:37;;;;;;;17.77;10.53;;;7.50;99.90;;;;;;5000886;28;20242;-81
2023/01/06 01:01:07;;;;;;;20.47;11.07;;;7.50;9.60;;;;;;4985177;28;20230;-81
2023/01/06 01:03:34;;;;;;;16.47;9.80;;;7.50;43.60;;;;;;5004303;28;20267;-82
2023/01/06 01:06:05;;;;;;;18.47;10.93;;;7.50;5.30;;;;;;4988350;28;20275;-80
2023/01/06 01:08:31;;;;;;;17.47;10.10;;;7.50;1.00;;;;;;4990121;28;20242;-80
2023/01/06 01:11:09;;;;;;;16.40;10.83;;;7.50;64.50;;;;;;4989826;28;20991;-81
2023/01/06 01:13:35;;;;;;;18.87;10.33;;;7.40;99.90;;;;;;4990703;28;20214;-81
2023/01/06 01:16:08;;;;;;;21.33;11.10;;;7.40;99.90;;;;;;4988412;28;20650;-81
2023/01/06 01:18:34;;;;;;;17.57;11.37;;;7.30;1.00;;;;;;4988268;28;20226;-81
2023/01/06 01:21:00;;;;;;;19.90;11.57;;;7.40;1.00;;;;;;4988143;28;20190;-82
2023/01/06 01:23:26;;;;;;;16.50;10.77;;;7.30;99.90;;;;;;4990127;28;20188;-81
2023/01/06 01:25:55;;;;;;;18.17;10.83;;;7.30;99.90;;;;;;4989920;28;20184;-81
2023/01/06 01:28:21;;;;;;;20.10;11.20;;;7.40;99.90;;;;;;4988237;28;20259;-81
2023/01/06 01:30:46;;;;;;;20.37;11.93;;;7.40;99.90;;;;;;4989821;28;20199;-81
2023/01/06 01:33:12;;;;;;;16.80;10.67;;;7.40;99.90;;;;;;4989971;28;20196;-81
2023/01/06 01:35:37;;;;;;;18.60;10.37;;;7.40;99.90;;;;;;4989610;28;20254;-80
2023/01/06 01:38:03;;;;;;;17.27;10.60;;;7.50;99.90;;;;;;4989705;28;20259;-81
2023/01/06 01:40:28;;;;;;;19.87;11.90;;;7.40;99.90;;;;;;4989713;28;20188;-81
2023/01/06 01:42:54;;;;;;;17.67;10.57;;;7.40;99.90;;;;;;4989830;28;20187;-80
2023/01/06 01:45:28;;;;;;;24.97;12.80;;;7.40;1.00;;;;;;4989342;28;20184;-80
2023/01/06 01:48:04;;;;;;;17.83;11.03;;;7.40;1.00;;;;;;4989546;28;20247;-80
2023/01/06 01:50:35;;;;;;;20.13;11.77;;;7.30;1.00;;;;;;4988312;28;20180;-81
2023/01/06 01:53:19;;;;;;;19.43;11.33;;;7.30;99.90;;;;;;4988206;28;20184;-80
2023/01/06 01:55:47;;;;;;;21.77;12.53;;;7.40;1.00;;;;;;4988808;28;20246;-80
2023/01/06 01:58:19;;;;;;;22.53;11.93;;;7.30;1.00;;;;;;4987725;28;20224;-81
2023/01/06 02:00:45;;;;;;;25.00;12.67;;;7.30;1.00;;;;;;4987989;28;20180;-80
2023/01/06 02:03:14;;;;;;;17.93;11.03;;;7.30;99.90;;;;;;4989271;28;20192;-82
2023/01/06 02:05:43;;;;;;;19.53;11.13;;;7.30;99.90;;;;;;4989240;28;20185;-80
2023/01/06 02:08:42;;;;;;;22.97;11.90;;;7.40;1.00;;;;;;5003782;28;20216;-80
2023/01/06 02:11:09;;;;;;;18.07;11.57;;;7.40;1.00;;;;;;4979875;28;20204;-80
2023/01/06 02:13:37;;;;;;;19.83;11.87;;;7.40;1.00;;;;;;4986660;28;20658;-80
2023/01/06 02:16:37;;;;;;;23.40;12.17;;;7.40;1.00;;;;;;5003078;28;20184;-80
2023/01/06 02:19:26;;;;;;;15.97;11.00;;;7.40;1.00;;;;;;4988068;28;20228;-80
2023/01/06 02:22:34;;;;;;;19.70;10.80;;;7.40;1.00;;;;;;4987362;28;20176;-80
2023/01/06 02:25:26;;;;;;;19.77;11.47;;;7.40;1.00;;;;;;5003526;28;20596;-80
2023/01/06 02:28:26;;;;;;;17.77;11.23;;;7.40;99.90;;;;;;4986996;28;20213;-80
2023/01/06 02:31:25;;;;;;;18.90;11.47;;;7.40;1.00;;;;;;4988535;28;20192;-80
2023/01/06 02:34:21;;;;;;;19.13;11.30;;;7.40;99.90;;;;;;5003447;28;20601;-80
2023/01/06 02:36:58;;;;;;;17.60;11.87;;;7.40;1.00;;;;;;4987705;28;20740;-80
2023/01/06 02:39:37;;;;;;;20.97;12.00;;;7.40;99.90;;;;;;4994329;28;20207;-79
2023/01/06 02:42:38;;;;;;;16.57;11.17;;;7.70;1.00;;;;;;4994940;28;20180;-80
2023/01/06 02:45:21;;;;;;;18.57;11.67;;;7.40;1.00;;;;;;4923156;29;20178;-82
2023/01/06 02:48:14;;;;;;;16.53;11.40;;;7.30;1.00;;;;;;5009008;28;20279;-81
2023/01/06 02:50:51;;;;;;;18.63;11.30;;;7.30;99.90;;;;;;5013868;28;21416;-81
2023/01/06 02:53:24;;;;;;;18.20;11.03;;;7.20;99.90;;;;;;4998313;28;20254;-80
2023/01/06 02:55:53;;;;;;;18.10;10.93;;;7.10;1.00;;;;;;4997319;28;20180;-80
2023/01/06 02:58:39;;;;;;;17.30;11.13;;;7.20;1.00;;;;;;5013003;28;20792;-80
2023/01/06 03:01:21;;;;;;;17.60;10.70;;;7.30;1.00;;;;;;4997038;28;20238;-80
2023/01/06 03:03:48;;;;;;;19.57;10.93;;;7.30;99.90;;;;;;4997115;28;20231;-80
2023/01/06 03:06:20;;;;;;;15.23;10.03;;;8.20;99.90;;;;;;4997618;28;20254;-79
2023/01/06 03:08:48;;;;;;;18.10;10.80;;;7.20;1.00;;;;;;4997551;28;20180;-80
2023/01/06 03:11:15;;;;;;;16.03;10.70;;;7.70;1.00;;;;;;4997341;28;20246;-81
2023/01/06 03:13:49;;;;;;;17.57;10.00;;;7.30;1.00;;;;;;4997503;28;20188;-80
2023/01/06 03:16:15;;;;;;;17.60;10.47;;;7.30;1.00;;;;;;4997362;28;20188;-80
2023/01/06 03:18:43;;;;;;;16.00;9.30;;;7.30;35.70;;;;;;4997754;28;20204;-80
2023/01/06 03:21:37;;;;;;;14.47;10.03;;;7.20;99.90;;;;;;5012064;28;20239;-80
2023/01/06 03:24:09;;;;;;;14.33;9.43;;;7.00;99.90;;;;;;4993041;28;20212;-80
2023/01/06 03:26:36;;;;;;;14.57;9.83;;;7.30;99.90;;;;;;4994916;28;20216;-80
2023/01/06 03:29:06;;;;;;;14.50;9.50;;;9.00;99.90;;;;;;4997929;28;20184;-81
2023/01/06 03:31:47;;;;;;;16.77;9.10;;;7.40;99.90;;;;;;4995764;28;20212;-80
2023/01/06 03:34:33;;;;;;;14.23;8.70;;;7.40;52.20;;;;;;4996062;28;20246;-80
2023/01/06 03:37:12;;;;;;;15.73;8.53;;;9.00;1.00;;;;;;5011047;28;20207;-80
2023/01/06 03:40:15;;;;;;;14.13;9.27;;;7.40;1.00;;;;;;4994931;28;20226;-80
2023/01/06 03:45:57;;;;;;;14.70;8.87;;;7.70;11.00;;;;;;4996397;28;20308;-81
2023/01/06 03:48:47;;;;;;;14.93;9.03;;;7.50;1.00;;;;;;4994399;28;20685;-81
2023/01/06 03:51:37;;;;;;;12.90;8.70;;;7.50;1.00;;;;;;4994829;28;20192;-80
2023/01/06 03:54:28;;;;;;;13.53;8.70;;;7.50;1.00;;;;;;4993902;28;20187;-80
2023/01/06 03:57:07;;;;;;;12.77;8.47;;;7.40;9.60;;;;;;4994251;28;20211;-81
2023/01/06 03:59:39;;;;;;;14.03;8.87;;;7.50;77.80;;;;;;4994370;28;20218;-80
2023/01/06 04:02:05;;;;;;;11.97;8.33;;;8.60;99.90;;;;;;4994836;28;20180;-80
2023/01/06 04:04:30;;;;;;;10.93;7.67;;;8.90;99.90;;;;;;4994840;28;20215;-80
2023/01/06 04:06:56;;;;;;;14.10;8.37;;;7.30;75.70;;;;;;4994590;28;20283;-80
2023/01/06 04:09:22;;;;;;;13.23;7.77;;;7.50;1.00;;;;;;4995610;28;20358;-80
2023/01/06 04:14:32;;;;;;;8.93;5.03;;;9.50;1.00;;;;;;4996389;28;20195;-82
2023/01/06 04:16:57;;;;;;;7.07;4.03;;;8.60;70.40;;;;;;4995485;28;20204;-80
2023/01/06 04:19:23;;;;;;;5.37;3.93;;;7.70;99.90;;;;;;4994656;28;20224;-80
2023/01/06 04:21:49;;;;;;;4.87;3.90;;;10.00;99.90;;;;;;4994900;28;20183;-81
2023/01/06 04:24:14;;;;;;;5.50;3.43;;;7.70;99.90;;;;;;4994288;28;20532;-80
2023/01/06 04:26:40;;;;;;;8.47;3.37;;;8.50;99.90;;;;;;4994125;28;20230;-81
2023/01/06 04:29:05;;;;;;;5.53;3.30;;;7.90;99.90;;;;;;4993012;28;20184;-81
2023/01/06 04:31:31;;;;;;;6.50;3.37;;;8.10;99.90;;;;;;4994881;28;20187;-81
2023/01/06 04:33:56;;;;;;;4.73;2.87;;;9.50;99.90;;;;;;4995024;28;20188;-80
2023/01/06 04:36:22;;;;;;;2.67;2.40;;;10.10;99.90;;;;;;4992700;28;20243;-81
2023/01/06 04:38:47;;;;;;;3.47;2.20;;;10.30;99.90;;;;;;4996660;28;20215;-81
2023/01/06 04:41:13;;;;;;;4.03;2.03;;;8.40;99.90;;;;;;4996501;28;20195;-80
2023/01/06 04:43:39;;;;;;;3.47;2.03;;;8.60;93.30;;;;;;4999560;28;20184;-80
2023/01/06 04:46:05;;;;;;;3.50;1.80;;;8.40;1.00;;;;;;4998079;28;20700;-81
2023/01/06 04:48:30;;;;;;;3.23;1.63;;;8.40;1.00;;;;;;4997565;28;20238;-82
2023/01/06 04:51:04;;;;;;;3.47;1.30;;;9.40;1.00;;;;;;4997236;28;20184;-80
2023/01/06 04:53:35;;;;;;;3.33;1.40;;;8.50;1.00;;;;;;4996739;28;20188;-81
2023/01/06 04:56:07;;;;;;;1.70;1.00;;;8.50;99.90;;;;;;5012402;28;20207;-81
2023/01/06 04:58:33;;;;;;;2.90;1.60;;;8.50;99.90;;;;;;4997150;28;20250;-80
2023/01/06 05:01:00;;;;;;;1.47;1.23;;;8.50;4.50;;;;;;5012442;28;20287;-80
2023/01/06 05:03:26;;;;;;;1.97;1.13;;;8.50;88.20;;;;;;4997531;28;20198;-81
2023/01/06 05:05:51;;;;;;;1.80;1.30;;;8.50;69.40;;;;;;4996121;28;20188;-81
2023/01/06 05:08:17;;;;;;;2.17;1.30;;;8.50;1.00;;;;;;4996567;28;20278;-81
2023/01/06 05:10:43;;;;;;;2.43;1.40;;;10.40;99.90;;;;;;4997423;28;20555;-81
2023/01/06 05:13:08;;;;;;;1.60;1.20;;;8.40;1.00;;;;;;4997796;28;20616;-82
2023/01/06 05:15:34;;;;;;;1.77;1.10;;;8.30;99.90;;;;;;4997611;28;20393;-83
2023/01/06 05:17:59;;;;;;;2.90;1.00;;;8.60;99.90;;;;;;4995331;28;20561;-81
2023/01/06 05:20:25;;;;;;;2.20;1.00;;;8.70;1.00;;;;;;4995650;28;20196;-81
2023/01/06 05:22:50;;;;;;;1.30;0.87;;;8.70;1.00;;;;;;4994657;28;20184;-81
2023/01/06 05:25:16;;;;;;;2.07;1.00;;;8.70;1.00;;;;;;4994841;28;20192;-82
2023/01/06 05:27:41;;;;;;;1.80;0.90;;;8.70;8.10;;;;;;4995772;28;20212;-80
2023/01/06 05:30:07;;;;;;;2.37;0.90;;;8.70;1.00;;;;;;4994798;28;20335;-82
2023/01/06 05:32:33;;;;;;;2.83;1.20;;;8.70;1.00;;;;;;4995291;28;20191;-81
2023/01/06 05:34:59;;;;;;;1.53;0.80;;;8.70;1.00;;;;;;4994464;28;20211;-81
2023/01/06 05:37:24;;;;;;;2.40;1.00;;;8.80;99.90;;;;;;4995016;28;20636;-81
2023/01/06 05:39:50;;;;;;;3.00;1.00;;;8.70;1.00;;;;;;4996134;28;20188;-83
2023/01/06 05:42:16;;;;;;;2.50;1.20;;;8.80;99.90;;;;;;4994216;28;20188;-82
2023/01/06 05:44:42;;;;;;;1.63;0.80;;;8.80;99.90;;;;;;4994536;28;20197;-81
2023/01/06 05:47:07;;;;;;;3.17;1.00;;;8.80;99.90;;;;;;4995208;28;20204;-81
2023/01/06 05:49:33;;;;;;;2.00;0.97;;;8.80;51.60;;;;;;4994195;28;20184;-82
2023/01/06 05:51:58;;;;;;;1.07;0.97;;;8.90;1.00;;;;;;4996880;28;20200;-81
2023/01/06 05:54:24;;;;;;;3.03;0.97;;;8.80;1.00;;;;;;4997437;28;20191;-82
2023/01/06 05:56:49;;;;;;;1.47;1.23;;;9.00;1.00;;;;;;4994324;28;20208;-81
2023/01/06 05:59:15;;;;;;;1.70;1.00;;;8.90;1.00;;;;;;4996281;28;20549;-82
2023/01/06 06:01:41;;;;;;;1.57;0.90;;;8.90;1.00;;;;;;4994923;28;20195;-80
2023/01/06 06:04:06;;;;;;;2.07;1.00;;;8.90;1.00;;;;;;4994110;28;20206;-81
2023/01/06 06:06:32;;;;;;;2.97;1.20;;;8.80;1.00;;;;;;4994026;28;20262;-81
2023/01/06 06:08:58;;;;;;;2.37;1.13;;;10.60;1.00;;;;;;4995960;28;20227;-82
2023/01/06 06:11:24;;;;;;;1.83;0.93;;;8.80;1.00;;;;;;4993716;28;20193;-80
2023/01/06 06:13:54;;;;;;;2.03;1.30;;;9.70;1.00;;;;;;4995795;28;20219;-83
2023/01/06 06:16:22;;;;;;;1.97;1.00;;;8.80;1.00;;;;;;4993585;28;20180;-83
2023/01/06 06:18:53;;;;;;;2.57;1.30;;;9.20;1.00;;;;;;4995924;28;20216;-82
2023/01/06 06:21:22;;;;;;;1.83;1.10;;;10.60;1.00;;;;;;4994697;28;20247;-82
2023/01/06 06:23:47;;;;;;;1.80;1.00;;;9.00;1.00;;;;;;4995397;28;20654;-81
2023/01/06 06:26:13;;;;;;;3.33;1.00;;;9.00;99.90;;;;;;4994427;28;20236;-81
2023/01/06 06:28:40;;;;;;;2.10;1.13;;;9.00;99.90;;;;;;4995405;28;20199;-81
2023/01/06 06:31:07;;;;;;;3.03;1.23;;;9.00;99.90;;;;;;4993964;28;20718;-80
2023/01/06 06:33:33;;;;;;;3.23;1.10;;;10.70;99.90;;;;;;4994852;28;20246;-83
2023/01/06 06:36:00;;;;;;;2.70;1.10;;;9.00;99.90;;;;;;4993957;28;20600;-82
2023/01/06 06:38:26;;;;;;;2.47;1.00;;;9.10;99.90;;;;;;4995858;28;20222;-82
2023/01/06 06:40:51;;;;;;;1.73;1.00;;;9.00;99.90;;;;;;4993976;28;20189;-81
2023/01/06 06:43:17;;;;;;;1.27;0.80;;;9.00;99.90;;;;;;4994878;28;20705;-83
2023/01/06 06:45:46;;;;;;;1.47;0.87;;;9.10;99.90;;;;;;4995629;28;20189;-81
2023/01/06 06:48:12;;;;;;;1.70;0.80;;;9.10;99.90;;;;;;4995857;28;20230;-82
2023/01/06 06:50:38;;;;;;;2.70;0.97;;;10.50;99.90;;;;;;5012225;28;20184;-81
2023/01/06 06:53:03;;;;;;;1.13;0.73;;;9.10;99.90;;;;;;4994496;28;20697;-81
2023/01/06 06:55:29;;;;;;;1.37;0.90;;;9.10;99.90;;;;;;4994344;28;20258;-83
2023/01/06 06:57:55;;;;;;;1.53;0.70;;;9.10;99.90;;;;;;4993712;28;20234;-82
2023/01/06 07:00:20;;;;;;;2.43;0.80;;;9.00;99.90;;;;;;4994387;28;20184;-80
2023/01/06 07:02:50;;;;;;;0.70;0.70;;;9.10;99.90;;;;;;4993588;28;20180;-82
2023/01/06 07:05:16;;;;;;;2.97;0.83;;;9.10;99.90;;;;;;4993306;28;20212;-81
2023/01/06 07:07:43;;;;;;;2.07;0.90;;;9.10;99.90;;;;;;5009544;28;20204;-82
2023/01/06 07:10:14;;;;;;;1.20;0.80;;;9.00;99.90;;;;;;4995488;28;20220;-81
2023/01/06 07:12:40;;;;;;;1.47;0.73;;;9.10;99.90;;;;;;4993635;28;20188;-83
2023/01/06 07:15:06;;;;;;;1.13;0.83;;;9.00;99.90;;;;;;4993570;28;21151;-81
2023/01/06 07:17:32;;;;;;;1.87;1.03;;;9.10;99.90;;;;;;4992995;28;20611;-82
2023/01/06 07:19:57;;;;;;;2.37;0.90;;;9.40;99.90;;;;;;4993804;28;20180;-83
2023/01/06 07:22:23;;;;;;;1.60;1.00;;;9.00;99.90;;;;;;4993974;28;20556;-82
2023/01/06 07:24:48;;;;;;;2.10;1.13;;;9.00;99.90;;;;;;4995051;28;20185;-81
2023/01/06 07:27:14;;;;;;;2.63;1.17;;;9.10;99.90;;;;;;4994357;28;20204;-83
2023/01/06 07:29:39;;;;;;;1.47;1.30;;;9.10;99.90;;;;;;4995484;28;20192;-81
2023/01/06 07:32:05;;;;;;;2.63;1.70;;;9.20;99.90;;;;;;4996151;28;20196;-82
2023/01/06 07:34:31;;;;;;;1.87;1.53;;;9.10;99.90;;;;;;4994840;28;20193;-80
2023/01/06 07:36:56;;;;;;;2.17;1.60;;;9.10;99.90;;;;;;4995800;28;20239;-83
2023/01/06 07:39:22;;;;;;;3.70;1.43;;;9.20;99.90;;;;;;5011986;28;20602;-82
2023/01/06 07:41:48;;;;;;;3.57;1.70;;;9.20;99.90;;;;;;4995165;28;20180;-81
2023/01/06 07:44:13;;;;;;;1.93;1.60;;;10.90;99.90;;;;;;4994264;28;20184;-80
2023/01/06 07:46:39;;;;;;;2.87;1.80;;;9.20;99.90;;;;;;5010793;28;20204;-82
2023/01/06 07:49:05;;;;;;;3.00;2.20;;;9.10;99.90;;;;;;4997606;28;20230;-81
2023/01/06 07:51:30;;;;;;;3.03;1.83;;;10.30;99.90;;;;;;4996377;28;20570;-82
2023/01/06 07:53:56;;;;;;;2.97;1.77;;;9.10;99.90;;;;;;4993816;28;20199;-81
2023/01/06 07:56:22;;;;;;;2.00;1.80;;;9.30;99.90;;;;;;4988891;28;20199;-81
2023/01/06 07:58:48;;;;;;;4.03;2.10;;;9.30;99.90;;;;;;4988307;28;20227;-83
2023/01/06 08:01:14;;;;;;;3.10;1.70;;;9.20;99.90;;;;;;4990309;28;20618;-81
2023/01/06 08:03:39;;;;;;;2.63;1.83;;;9.30;99.90;;;;;;4988624;28;20250;-81
2023/01/06 08:06:09;;;;;;;2.73;2.10;;;9.30;99.90;;;;;;4989693;28;20267;-81
2023/01/06 08:08:39;;;;;;;2.17;1.77;;;9.30;99.90;;;;;;4991680;28;20177;-82
2023/01/06 08:11:06;;;;;;;1.90;1.57;;;9.30;97.30;;;;;;4988753;28;20180;-83
2023/01/06 08:13:33;;;;;;;6.70;1.87;;;9.40;87.70;;;;;;4986568;28;20177;-82
2023/01/06 08:16:02;;;;;;;4.57;2.03;;;10.80;65.40;;;;;;4990319;28;20185;-81
2023/01/06 08:18:28;;;;;;;4.13;1.77;;;9.50;49.40;;;;;;5006035;28;20285;-83
2023/01/06 08:20:59;;;;;;;3.10;1.90;;;9.50;57.70;;;;;;4990594;28;20824;-82
2023/01/06 08:23:25;;;;;;;2.43;1.83;;;9.60;39.30;;;;;;4986497;28;20181;-83
2023/01/06 08:25:50;;;;;;;2.93;1.60;;;9.60;41.30;;;;;;4985461;28;20317;-82
2023/01/06 08:28:16;;;;;;;3.03;2.00;;;9.50;41.40;;;;;;4985046;28;20212;-82
2023/01/06 08:30:42;;;;;;;2.50;1.97;;;9.60;37.30;;;;;;4987205;28;20212;-84
2023/01/06 08:33:07;;;;;;;2.37;1.63;;;9.60;38.50;;;;;;4987612;28;20184;-83
2023/01/06 08:35:33;;;;;;;4.60;1.90;;;9.50;36.80;;;;;;4985946;28;20192;-83
2023/01/06 08:37:59;;;;;;;3.73;1.90;;;9.60;45.40;;;;;;4986261;28;20278;-82
2023/01/06 08:40:24;;;;;;;3.87;1.70;;;10.30;38.80;;;;;;4986560;28;20203;-83
2023/01/06 08:42:50;;;;;;;2.77;1.70;;;9.50;39.30;;;;;;4985197;28;20225;-83
2023/01/06 08:45:16;;;;;;;1.87;1.67;;;9.60;33.80;;;;;;4986104;28;20180;-82
2023/01/06 08:47:41;;;;;;;3.83;1.83;;;9.50;39.00;;;;;;4986046;28;20744;-83
2023/01/06 08:50:07;;;;;;;3.80;2.03;;;9.50;40.60;;;;;;4990663;28;20184;-84
2023/01/06 08:52:33;;;;;;;2.03;1.40;;;10.20;47.80;;;;;;4986595;28;20196;-82
2023/01/06 08:54:59;;;;;;;2.50;1.50;;;9.50;40.90;;;;;;4986640;28;20207;-83
2023/01/06 08:57:24;;;;;;;2.03;1.47;;;9.60;42.70;;;;;;4987805;28;21096;-83
2023/01/06 08:59:50;;;;;;;2.83;1.47;;;9.60;45.80;;;;;;4988421;28;20300;-83
2023/01/06 09:02:16;;;;;;;2.43;1.53;;;9.60;60.10;;;;;;4986461;28;20271;-82
2023/01/06 09:04:41;;;;;;;2.60;1.40;;;9.60;44.80;;;;;;4985303;28;20275;-81
2023/01/06 09:07:07;;;;;;;2.10;1.30;;;9.70;40.60;;;;;;4985742;28;20263;-82
2023/01/06 09:09:32;;;;;;;4.27;1.53;;;9.80;36.10;;;;;;4984941;28;20184;-82
2023/01/06 09:11:58;;;;;;;3.17;1.40;;;9.70;45.40;;;;;;4985136;28;20199;-85
2023/01/06 09:14:24;;;;;;;1.33;1.20;;;9.70;49.50;;;;;;4987245;28;20662;-82
2023/01/06 09:16:50;;;;;;;4.30;1.80;;;9.70;49.40;;;;;;4986044;28;20258;-82
2023/01/06 09:19:15;;;;;;;4.00;1.97;;;9.70;50.60;;;;;;5003132;28;20224;-82
2023/01/06 09:21:41;;;;;;;7.07;1.83;;;9.70;53.60;;;;;;4983683;28;20215;-84
2023/01/06 09:24:11;;;;;;;4.03;1.40;;;9.80;48.30;;;;;;4986994;28;20184;-82
2023/01/06 09:26:37;;;;;;;4.67;2.90;;;9.80;49.10;;;;;;4988807;28;20227;-84
2023/01/06 09:29:03;;;;;;;2.53;1.50;;;11.90;42.20;;;;;;4989358;28;20728;-83
2023/01/06 09:31:28;;;;;;;3.07;1.30;;;9.90;48.20;;;;;;4990727;28;20231;-82
2023/01/06 09:33:54;;;;;;;1.67;1.10;;;9.90;48.60;;;;;;4989056;28;20188;-82
2023/01/06 09:36:20;;;;;;;1.77;1.07;;;9.90;42.50;;;;;;4989091;28;20195;-82
2023/01/06 09:38:46;;;;;;;2.47;0.90;;;9.90;48.80;;;;;;4990574;28;20266;-84
2023/01/06 09:41:36;;;;;;;1.43;1.10;;;10.00;61.50;;;;;;4989155;28;20180;-82
2023/01/06 09:44:10;;;;;;;2.70;1.40;;;10.00;46.20;;;;;;4990439;28;20180;-82
2023/01/06 09:46:39;;;;;;;1.67;1.00;;;10.00;50.20;;;;;;4988121;28;20192;-81
2023/01/06 09:49:26;;;;;;;1.93;1.00;;;10.00;50.50;;;;;;4989080;28;20291;-82
2023/01/06 09:51:59;;;;;;;4.40;1.20;;;10.10;59.70;;;;;;4988491;28;20172;-81
2023/01/06 09:54:44;;;;;;;2.30;1.20;;;10.10;54.70;;;;;;4989498;28;20212;-82
2023/01/06 09:57:15;;;;;;;3.67;0.90;;;10.00;74.10;;;;;;4988639;28;20950;-82
2023/01/06 09:59:55;;;;;;;1.23;0.90;;;11.30;61.80;;;;;;4989352;28;20219;-83
2023/01/06 10:02:29;;;;;;;1.03;0.70;;;10.10;70.40;;;;;;4989692;28;20187;-82
2023/01/06 10:04:55;;;;;;;1.93;0.90;;;10.00;69.50;;;;;;4989859;28;20730;-81
2023/01/06 10:07:50;;;;;;;1.27;0.90;;;10.00;67.90;;;;;;4987825;28;20315;-81
2023/01/06 10:10:35;;;;;;;1.73;1.00;;;10.00;75.10;;;;;;4990368;28;20327;-82
2023/01/06 10:13:03;;;;;;;2.13;1.03;;;10.10;70.10;;;;;;4990653;28;20208;-84
2023/01/06 10:16:27;;;;;;;2.23;1.10;;;10.10;77.00;;;;;;4990553;28;20184;-82
2023/01/06 10:19:25;;;;;;;1.87;1.03;;;10.20;79.50;;;;;;4963021;28;20299;-84
2023/01/06 10:22:05;;;;;;;3.03;1.33;;;10.20;65.70;;;;;;4988538;28;20172;-84
2023/01/06 10:24:58;;;;;;;3.10;0.90;;;10.20;99.90;;;;;;4988922;28;20266;-83
2023/01/06 10:27:36;;;;;;;0.70;0.70;;;10.10;99.90;;;;;;4989651;28;20204;-82
2023/01/06 10:30:04;;;;;;;1.00;0.90;;;10.10;99.90;;;;;;4988148;28;20681;-82
2023/01/06 10:32:33;;;;;;;3.50;1.00;;;10.00;99.90;;;;;;4989228;28;20263;-80
2023/01/06 10:35:00;;;;;;;1.47;0.90;;;9.90;99.90;;;;;;4987251;28;20224;-83
2023/01/06 10:37:38;;;;;;;2.53;0.93;;;9.90;99.90;;;;;;4988199;28;20631;-86
2023/01/06 10:40:19;;;;;;;4.17;1.17;;;9.90;99.90;;;;;;4988088;28;20184;-81
2023/01/06 10:42:56;;;;;;;1.70;0.90;;;9.90;99.90;;;;;;4987442;28;20177;-82
2023/01/06 10:45:32;;;;;;;1.80;0.80;;;9.90;99.90;;;;;;4988745;28;20168;-81
2023/01/06 10:48:00;;;;;;;1.20;0.63;;;9.90;99.90;;;;;;4987148;28;20204;-82
2023/01/06 10:50:26;;;;;;;1.73;0.80;;;9.90;99.90;;;;;;4986658;28;20188;-82
2023/01/06 10:52:52;;;;;;;1.30;0.93;;;10.00;99.90;;;;;;4987577;28;21200;-82
2023/01/06 10:55:17;;;;;;;2.30;0.83;;;10.00;99.90;;;;;;4986847;28;20180;-82
2023/01/06 10:57:43;;;;;;;1.00;0.90;;;10.00;99.90;;;;;;4988429;28;20298;-83
2023/01/06 11:00:14;;;;;;;2.97;0.90;;;10.10;99.90;;;;;;4987600;28;20576;-83
2023/01/06 11:02:46;;;;;;;1.33;0.70;;;10.10;99.90;;;;;;4986900;28;20184;-83
2023/01/06 11:05:13;;;;;;;1.30;0.60;;;10.00;99.90;;;;;;4988640;28;20184;-84
2023/01/06 11:08:13;;;;;;;2.53;0.90;;;10.10;99.90;;;;;;4986416;28;20270;-83
2023/01/06 11:10:42;;;;;;;1.40;1.00;;;10.10;99.90;;;;;;4991811;28;20196;-82
2023/01/06 11:13:29;;;;;;;1.00;0.70;;;10.10;99.90;;;;;;5005965;28;20208;-81
2023/01/06 11:15:55;;;;;;;1.83;0.70;;;10.10;99.90;;;;;;4989970;28;20181;-82
2023/01/06 11:18:32;;;;;;;0.80;0.80;;;10.10;99.90;;;;;;4991316;28;20212;-82
2023/01/06 11:21:15;;;;;;;0.70;0.70;;;10.10;99.90;;;;;;5004111;28;20238;-80
2023/01/06 11:23:44;;;;;;;1.10;0.60;;;10.10;99.90;;;;;;4988552;28;20646;-82
2023/01/06 11:26:18;;;;;;;1.47;0.67;;;10.10;99.90;;;;;;4991118;28;20243;-82
2023/01/06 11:28:48;;;;;;;0.80;0.70;;;10.20;99.90;;;;;;4990375;28;20187;-80
2023/01/06 11:31:14;;;;;;;1.17;0.60;;;10.20;99.90;;;;;;4987105;28;20180;-81
2023/01/06 11:34:01;;;;;;;1.80;0.60;;;10.20;99.90;;;;;;4986096;28;20187;-80
2023/01/06 11:36:30;;;;;;;1.37;0.70;;;10.20;99.90;;;;;;4987354;28;20188;-82
2023/01/06 11:39:12;;;;;;;0.93;0.60;;;10.10;99.90;;;;;;4988221;28;20610;-82
2023/01/06 11:41:46;;;;;;;1.03;0.70;;;10.10;99.90;;;;;;5001972;28;20180;-80
2023/01/06 11:44:11;;;;;;;0.83;0.63;;;10.10;99.90;;;;;;4988459;28;20542;-82
2023/01/06 11:46:45;;;;;;;1.77;0.73;;;10.10;99.90;;;;;;4989201;28;20259;-82
2023/01/06 11:49:20;;;;;;;1.10;0.70;;;10.00;99.90;;;;;;4990924;28;20670;-82
2023/01/06 11:51:48;;;;;;;2.07;0.60;;;10.00;99.90;;;;;;4989692;28;20229;-82
2023/01/06 11:54:37;;;;;;;1.57;0.70;;;9.90;99.90;;;;;;5005311;28;20195;-82
2023/01/06 11:57:15;;;;;;;1.13;0.60;;;9.80;99.90;;;;;;4986105;28;20694;-80
2023/01/06 12:00:11;;;;;;;1.53;0.90;;;9.90;99.90;;;;;;4999858;28;20196;-80
2023/01/06 12:03:02;;;;;;;2.70;0.87;;;9.80;99.90;;;;;;4985539;28;20176;-80
2023/01/06 12:05:36;;;;;;;2.30;0.97;;;9.90;99.90;;;;;;4986548;28;20211;-79
2023/01/06 12:08:22;;;;;;;1.67;0.70;;;9.90;99.90;;;;;;4986871;28;20708;-82
2023/01/06 12:10:53;;;;;;;1.17;0.50;;;9.90;99.90;;;;;;4986666;28;20188;-83
2023/01/06 12:13:19;;;;;;;4.90;0.73;;;10.70;99.90;;;;;;4987379;28;20274;-84
2023/01/06 12:15:56;;;;;;;1.17;0.70;;;9.90;1.00;;;;;;4986277;28;20657;-80
2023/01/06 12:18:27;;;;;;;0.90;0.70;;;9.90;1.00;;;;;;5003245;28;20530;-84
2023/01/06 12:20:55;;;;;;;2.90;1.10;;;9.70;1.00;;;;;;5003497;28;20863;-83
2023/01/06 12:23:40;;;;;;;2.70;0.70;;;9.60;99.90;;;;;;4988929;28;20247;-78
2023/01/06 12:26:15;;;;;;;6.23;1.10;;;9.50;42.80;;;;;;4986923;28;20195;-83
2023/01/06 12:28:44;;;;;;;1.30;0.70;;;9.60;12.40;;;;;;4987230;28;20245;-81
2023/01/06 12:31:20;;;;;;;2.30;0.83;;;9.70;99.90;;;;;;4988439;28;20271;-80
2023/01/06 12:34:16;;;;;;;3.40;0.73;;;9.60;1.00;;;;;;4988329;28;20184;-82
2023/01/06 12:36:46;;;;;;;1.63;1.07;;;9.60;99.90;;;;;;4986798;28;20200;-80
2023/01/06 12:39:16;;;;;;;1.90;0.77;;;10.70;99.90;;;;;;4988427;28;20218;-80
2023/01/06 12:41:51;;;;;;;2.80;0.80;;;9.50;99.90;;;;;;4988151;28;20263;-80
